Time;durP1;ratioP1;P1;durP2;ratioP2;P2;SDS_P1;SDS_P2;PMS_P1;PMS_P2;Temp;Humidity;BMP_temperature;BMP_pressure;BME280_temperature;BME280_humidity;BME280_pressure;Samples;Min_cycle;Max_cycle;Signal;HPM_P1;HPM_P2
2021/05/10 00:01:42;;;;;;;5.18;1.90;;;16.20;92.70;;;;;;4839837;29;20023;-74
2021/05/10 00:04:08;;;;;;;5.63;1.88;;;16.10;93.20;;;;;;4836793;29;20103;-75
2021/05/10 00:06:33;;;;;;;4.95;2.05;;;16.10;93.20;;;;;;4840373;29;20446;-74
2021/05/10 00:09:01;;;;;;;6.18;1.90;;;16.10;93.10;;;;;;4839799;29;20397;-73
2021/05/10 00:11:27;;;;;;;2.97;1.48;;;16.20;93.10;;;;;;4839842;29;20026;-73
2021/05/10 00:13:54;;;;;;;3.97;1.65;;;16.10;93.20;;;;;;4840004;29;20045;-73
2021/05/10 00:16:20;;;;;;;3.83;1.98;;;16.10;93.20;;;;;;4839488;29;20370;-74
2021/05/10 00:18:46;;;;;;;4.88;1.88;;;16.10;93.40;;;;;;4839780;29;20048;-74
2021/05/10 00:21:12;;;;;;;3.60;1.60;;;16.10;93.20;;;;;;4836701;29;20064;-73
2021/05/10 00:23:38;;;;;;;4.25;1.98;;;16.10;93.30;;;;;;4839971;29;20026;-74
2021/05/10 00:26:04;;;;;;;5.93;2.22;;;16.10;93.30;;;;;;4839510;29;20389;-73
2021/05/10 00:28:29;;;;;;;4.10;1.48;;;16.10;93.20;;;;;;4839838;29;20404;-74
2021/05/10 00:30:55;;;;;;;5.18;2.17;;;16.20;93.30;;;;;;4839617;29;20412;-73
2021/05/10 00:33:21;;;;;;;4.30;1.80;;;16.10;93.80;;;;;;4839157;29;20038;-74
2021/05/10 00:35:47;;;;;;;2.90;1.50;;;16.10;94.10;;;;;;4839394;29;20601;-74
2021/05/10 00:38:12;;;;;;;3.78;1.70;;;16.10;93.80;;;;;;4836921;29;20026;-73
2021/05/10 00:40:39;;;;;;;4.22;1.95;;;16.10;93.90;;;;;;4839947;29;20170;-74
2021/05/10 00:43:05;;;;;;;4.55;2.00;;;16.10;93.90;;;;;;4839420;29;20090;-73
2021/05/10 00:45:30;;;;;;;8.43;2.60;;;16.20;93.70;;;;;;4838465;29;20134;-74
2021/05/10 00:47:57;;;;;;;4.47;2.40;;;16.20;93.70;;;;;;4838708;29;20082;-74
2021/05/10 00:50:23;;;;;;;4.57;2.33;;;16.10;93.70;;;;;;4838977;29;20042;-75
2021/05/10 00:52:50;;;;;;;8.68;2.50;;;16.10;93.60;;;;;;4839917;29;20167;-74
2021/05/10 00:55:16;;;;;;;4.15;2.10;;;16.20;93.70;;;;;;4837249;29;20027;-73
2021/05/10 00:57:53;;;;;;;3.35;1.55;;;16.20;93.60;;;;;;4839834;29;20038;-74
2021/05/10 01:00:21;;;;;;;3.63;1.95;;;16.20;93.80;;;;;;4838542;29;20022;-73
2021/05/10 01:02:48;;;;;;;9.77;1.90;;;16.10;93.80;;;;;;4839959;29;20086;-74
2021/05/10 01:05:15;;;;;;;4.28;2.17;;;16.20;93.70;;;;;;4842229;29;20137;-73
2021/05/10 01:07:41;;;;;;;4.20;2.08;;;16.10;93.80;;;;;;4843412;29;20109;-74
2021/05/10 01:10:11;;;;;;;6.78;2.25;;;16.20;93.80;;;;;;4837650;29;20029;-73
2021/05/10 01:12:38;;;;;;;5.32;2.08;;;16.10;94.10;;;;;;4838604;29;20468;-74
2021/05/10 01:15:07;;;;;;;4.82;2.08;;;16.10;94.20;;;;;;4841201;29;20037;-73
2021/05/10 01:17:34;;;;;;;4.07;1.67;;;16.10;94.30;;;;;;4842551;29;20014;-74
2021/05/10 01:20:01;;;;;;;6.00;2.35;;;16.00;94.50;;;;;;4842604;29;20125;-74
2021/05/10 01:22:49;;;;;;;7.53;2.40;;;16.10;94.80;;;;;;4842577;29;20057;-74
2021/05/10 01:25:30;;;;;;;5.13;1.70;;;16.00;95.00;;;;;;4841865;29;20073;-74
2021/05/10 01:27:58;;;;;;;3.63;1.90;;;16.00;94.80;;;;;;4841924;29;20046;-73
2021/05/10 01:30:31;;;;;;;3.97;2.03;;;16.00;94.70;;;;;;4839355;29;20049;-74
2021/05/10 01:32:58;;;;;;;4.60;2.03;;;16.00;94.90;;;;;;4842519;29;20054;-74
2021/05/10 01:35:43;;;;;;;5.32;1.65;;;16.00;94.80;;;;;;4841795;29;20035;-74
2021/05/10 01:38:10;;;;;;;5.97;2.20;;;15.90;95.10;;;;;;4841003;29;20037;-74
2021/05/10 01:40:36;;;;;;;4.72;2.20;;;15.90;95.70;;;;;;4842464;29;20046;-74
2021/05/10 01:43:03;;;;;;;3.95;1.77;;;15.90;95.70;;;;;;4841643;29;20109;-73
2021/05/10 01:45:29;;;;;;;4.75;2.20;;;15.90;95.80;;;;;;4834579;29;20046;-73
2021/05/10 01:48:02;;;;;;;6.82;2.90;;;15.90;95.40;;;;;;4840181;29;20034;-73
2021/05/10 01:50:28;;;;;;;5.72;2.45;;;15.90;95.40;;;;;;4841101;29;20037;-73
2021/05/10 01:52:54;;;;;;;10.63;2.38;;;15.80;95.20;;;;;;4841708;29;20029;-74
2021/05/10 01:55:22;;;;;;;3.95;1.70;;;15.80;95.30;;;;;;4841866;29;20405;-74
2021/05/10 01:57:50;;;;;;;5.50;2.25;;;15.70;95.70;;;;;;4841728;29;20030;-74
2021/05/10 02:00:20;;;;;;;5.18;1.75;;;15.70;96.20;;;;;;4841710;29;20038;-73
2021/05/10 02:02:46;;;;;;;5.75;1.67;;;15.60;96.30;;;;;;4841137;29;20045;-73
2021/05/10 02:05:18;;;;;;;4.80;1.77;;;15.70;96.50;;;;;;4839549;29;20030;-74
2021/05/10 02:07:47;;;;;;;4.25;2.05;;;15.60;96.50;;;;;;4841980;29;20113;-73
2021/05/10 02:10:22;;;;;;;5.13;2.17;;;15.60;96.30;;;;;;4840530;29;20508;-73
2021/05/10 02:12:54;;;;;;;5.28;1.95;;;15.70;95.90;;;;;;4840948;29;20041;-74
2021/05/10 02:15:20;;;;;;;5.40;2.33;;;15.80;95.70;;;;;;4840338;29;20041;-74
2021/05/10 02:17:46;;;;;;;5.22;2.20;;;15.70;95.90;;;;;;4841784;29;20440;-74
2021/05/10 02:20:13;;;;;;;4.75;2.28;;;15.80;95.80;;;;;;4838716;29;20091;-74
2021/05/10 02:22:39;;;;;;;4.50;2.30;;;15.80;95.60;;;;;;4841136;29;20030;-75
2021/05/10 02:25:05;;;;;;;5.50;2.17;;;15.80;95.60;;;;;;4841462;29;20175;-73
2021/05/10 02:27:32;;;;;;;3.08;1.95;;;15.80;95.60;;;;;;4841333;29;20037;-73
2021/05/10 02:29:58;;;;;;;4.32;1.80;;;15.70;95.70;;;;;;4840472;29;20099;-73
2021/05/10 02:32:24;;;;;;;6.63;2.70;;;15.80;95.50;;;;;;4840598;29;20066;-74
2021/05/10 02:34:49;;;;;;;5.15;1.80;;;15.70;95.80;;;;;;4841001;29;20022;-74
2021/05/10 02:37:16;;;;;;;5.32;2.33;;;15.60;96.10;;;;;;4837578;29;20477;-74
2021/05/10 02:39:42;;;;;;;10.13;2.72;;;15.50;95.80;;;;;;4833630;29;20034;-74
2021/05/10 02:42:08;;;;;;;5.32;1.75;;;15.50;96.00;;;;;;4840812;29;20090;-73
2021/05/10 02:44:34;;;;;;;5.85;2.28;;;15.10;96.90;;;;;;4840960;29;20041;-74
2021/05/10 02:46:59;;;;;;;5.75;2.00;;;15.10;96.90;;;;;;4840527;29;20036;-73
2021/05/10 02:49:25;;;;;;;3.83;1.98;;;15.20;96.70;;;;;;4840818;29;20033;-74
2021/05/10 02:51:51;;;;;;;6.50;2.65;;;15.30;96.50;;;;;;4840381;29;20065;-74
2021/05/10 02:54:16;;;;;;;4.82;2.22;;;15.20;96.60;;;;;;4837888;29;20515;-74
2021/05/10 02:56:42;;;;;;;3.92;1.85;;;15.10;96.70;;;;;;4840587;29;20037;-74
2021/05/10 02:59:08;;;;;;;6.15;2.70;;;15.10;96.70;;;;;;4840045;29;20101;-73
2021/05/10 03:01:33;;;;;;;4.72;1.80;;;15.10;96.70;;;;;;4840071;29;20441;-74
2021/05/10 03:03:59;;;;;;;5.35;2.55;;;15.00;97.00;;;;;;4830588;29;20026;-74
2021/05/10 03:06:25;;;;;;;5.65;2.45;;;15.00;97.10;;;;;;4833269;29;20059;-75
2021/05/10 03:08:50;;;;;;;6.60;2.38;;;15.00;97.10;;;;;;4835067;29;20041;-75
2021/05/10 03:11:16;;;;;;;4.95;2.00;;;14.80;97.40;;;;;;4831549;29;20050;-74
2021/05/10 03:13:42;;;;;;;5.93;2.53;;;14.60;97.90;;;;;;4833527;29;20038;-73
2021/05/10 03:16:08;;;;;;;5.72;2.38;;;14.70;97.60;;;;;;4831989;29;20030;-74
2021/05/10 03:18:34;;;;;;;4.97;2.15;;;14.90;97.40;;;;;;4833504;29;20536;-75
2021/05/10 03:21:00;;;;;;;10.13;2.60;;;15.20;96.50;;;;;;4833248;29;20096;-75
2021/05/10 03:23:26;;;;;;;6.85;2.38;;;15.50;95.70;;;;;;4833571;29;20049;-74
2021/05/10 03:25:51;;;;;;;7.00;2.70;;;15.50;95.80;;;;;;4827491;29;20956;-73
2021/05/10 03:28:17;;;;;;;4.65;2.25;;;15.50;95.60;;;;;;4830092;29;20034;-73
2021/05/10 03:30:43;;;;;;;5.35;2.58;;;15.60;95.30;;;;;;4832929;29;20030;-74
2021/05/10 03:33:13;;;;;;;5.72;2.22;;;15.60;95.50;;;;;;4833092;29;20691;-74
2021/05/10 03:35:39;;;;;;;4.95;2.42;;;15.60;95.60;;;;;;4833203;29;20040;-74
2021/05/10 03:38:05;;;;;;;5.05;2.38;;;15.50;95.90;;;;;;4832458;29;20025;-74
2021/05/10 03:40:31;;;;;;;3.95;2.10;;;15.20;96.40;;;;;;4833140;29;20461;-75
2021/05/10 03:42:58;;;;;;;5.30;2.40;;;15.00;97.00;;;;;;4831789;29;20034;-74
2021/05/10 03:45:24;;;;;;;4.55;2.03;;;14.90;97.20;;;;;;4830104;29;20129;-74
2021/05/10 03:47:50;;;;;;;8.70;2.00;;;14.70;97.60;;;;;;4832710;29;20120;-73
2021/05/10 03:50:18;;;;;;;5.93;2.00;;;14.70;97.70;;;;;;4826248;29;20633;-73
2021/05/10 03:52:48;;;;;;;6.82;2.20;;;14.60;97.80;;;;;;4832910;29;20036;-73
2021/05/10 03:55:16;;;;;;;10.82;2.28;;;14.70;97.50;;;;;;4832497;29;20030;-74
2021/05/10 03:57:43;;;;;;;7.65;2.60;;;14.80;97.30;;;;;;4832799;29;20037;-74
2021/05/10 04:00:11;;;;;;;4.28;2.55;;;14.80;97.50;;;;;;4832245;29;20037;-74
2021/05/10 04:02:38;;;;;;;4.95;2.10;;;14.40;98.50;;;;;;4830603;29;20058;-74
2021/05/10 04:15:31;;;;;;;8.32;2.75;;;13.90;99.90;;;;;;4832198;29;20106;-74
2021/05/10 04:17:57;;;;;;;5.88;2.65;;;14.00;99.80;;;;;;4832473;29;20441;-74
2021/05/10 04:20:23;;;;;;;6.80;2.38;;;14.10;99.70;;;;;;4829605;29;20758;-75
2021/05/10 04:22:48;;;;;;;16.25;3.55;;;14.10;99.90;;;;;;4833175;29;20110;-75
2021/05/10 04:25:14;;;;;;;14.27;2.97;;;14.00;99.90;;;;;;4831709;29;20120;-74
2021/05/10 04:27:40;;;;;;;26.40;4.50;;;13.80;99.90;;;;;;4832048;29;20053;-74
2021/05/10 04:30:07;;;;;;;13.80;3.05;;;13.70;99.90;;;;;;4832421;29;20030;-74
2021/05/10 04:32:32;;;;;;;9.27;2.80;;;13.90;99.90;;;;;;4828296;29;20054;-74
2021/05/10 04:34:58;;;;;;;4.82;2.00;;;13.90;99.90;;;;;;4828555;29;20030;-74
2021/05/10 04:37:24;;;;;;;3.17;1.60;;;13.70;99.90;;;;;;4829806;29;20050;-74
2021/05/10 04:39:50;;;;;;;9.35;2.92;;;13.60;99.90;;;;;;4834970;29;20025;-74
2021/05/10 04:42:16;;;;;;;4.80;2.17;;;13.60;99.90;;;;;;4835313;29;20378;-74
2021/05/10 04:44:42;;;;;;;6.28;2.17;;;13.80;99.90;;;;;;4836353;29;20085;-74
2021/05/10 04:47:08;;;;;;;4.20;2.35;;;13.90;99.90;;;;;;4835502;29;20061;-74
2021/05/10 04:49:33;;;;;;;4.80;1.92;;;14.10;99.90;;;;;;4836257;29;20404;-73
2021/05/10 04:51:59;;;;;;;7.65;2.17;;;14.20;99.90;;;;;;4835506;29;20354;-74
2021/05/10 04:54:25;;;;;;;5.15;2.15;;;14.40;99.90;;;;;;4832957;29;20030;-74
2021/05/10 04:56:50;;;;;;;6.40;2.47;;;14.30;99.90;;;;;;4835652;29;20461;-73
2021/05/10 04:59:16;;;;;;;5.20;1.88;;;14.40;99.90;;;;;;4835639;29;20038;-74
2021/05/10 05:01:43;;;;;;;7.00;2.03;;;14.40;99.90;;;;;;4835688;29;20485;-75
2021/05/10 05:04:09;;;;;;;6.13;2.13;;;14.50;99.90;;;;;;4835226;29;20037;-73
2021/05/10 05:06:34;;;;;;;11.05;2.00;;;14.40;99.90;;;;;;4835108;29;20030;-74
2021/05/10 05:09:00;;;;;;;8.30;2.58;;;14.50;99.90;;;;;;4835126;29;20048;-73
2021/05/10 05:11:26;;;;;;;5.95;2.15;;;14.60;99.90;;;;;;4833047;29;20648;-74
2021/05/10 05:13:52;;;;;;;5.07;2.10;;;14.70;99.90;;;;;;4834478;29;20559;-73
2021/05/10 05:16:17;;;;;;;7.93;3.22;;;14.60;99.90;;;;;;4835027;29;20053;-74
2021/05/10 05:18:43;;;;;;;7.47;2.85;;;14.60;99.90;;;;;;4834842;29;20052;-73
2021/05/10 05:21:09;;;;;;;6.07;2.38;;;14.60;99.90;;;;;;4834186;29;20065;-74
2021/05/10 05:23:34;;;;;;;8.18;2.58;;;14.50;99.90;;;;;;4835348;29;20061;-74
2021/05/10 05:26:04;;;;;;;7.97;2.67;;;14.30;99.90;;;;;;4835146;29;20041;-73
2021/05/10 05:28:31;;;;;;;4.32;2.10;;;14.50;99.90;;;;;;4832416;29;20042;-74
2021/05/10 05:30:59;;;;;;;6.57;2.53;;;14.70;99.90;;;;;;4835441;29;20117;-73
2021/05/10 05:33:25;;;;;;;5.53;2.08;;;14.90;99.90;;;;;;4834822;29;20046;-74
2021/05/10 05:35:51;;;;;;;4.20;2.35;;;14.80;99.90;;;;;;4834439;29;20617;-74
2021/05/10 05:38:17;;;;;;;10.13;2.40;;;14.90;99.90;;;;;;4832733;29;20465;-74
2021/05/10 05:40:44;;;;;;;5.35;1.98;;;14.90;99.90;;;;;;4835377;29;20038;-73
2021/05/10 05:43:10;;;;;;;6.22;2.33;;;15.00;99.90;;;;;;4833748;29;20044;-74
2021/05/10 05:45:38;;;;;;;5.03;2.08;;;15.10;99.90;;;;;;4832429;29;20073;-74
2021/05/10 05:48:05;;;;;;;10.15;3.08;;;15.20;99.90;;;;;;4832695;29;20038;-75
2021/05/10 05:50:31;;;;;;;7.90;2.50;;;15.30;99.90;;;;;;4833195;29;20112;-76
2021/05/10 05:52:57;;;;;;;6.40;2.45;;;15.30;99.60;;;;;;4839857;29;20026;-74
2021/05/10 05:55:23;;;;;;;7.55;2.13;;;15.30;99.70;;;;;;4834465;29;20762;-73
2021/05/10 05:57:49;;;;;;;10.23;2.95;;;15.30;99.90;;;;;;4834795;29;20030;-73
2021/05/10 06:00:15;;;;;;;9.00;2.80;;;15.40;99.90;;;;;;4833807;29;20034;-73
2021/05/10 06:02:41;;;;;;;6.03;2.30;;;15.50;99.90;;;;;;4835866;29;20116;-74
2021/05/10 06:05:08;;;;;;;6.00;2.10;;;15.50;99.90;;;;;;4824546;29;20527;-74
2021/05/10 06:07:39;;;;;;;10.55;2.55;;;15.50;99.90;;;;;;4830652;29;20040;-73
2021/05/10 06:10:05;;;;;;;5.05;2.28;;;15.60;99.90;;;;;;4831666;29;20030;-73
2021/05/10 06:12:31;;;;;;;5.70;2.00;;;15.70;99.00;;;;;;4831603;29;20030;-73
2021/05/10 06:14:56;;;;;;;5.25;2.30;;;15.90;98.80;;;;;;4832187;29;20044;-73
2021/05/10 06:17:22;;;;;;;6.80;2.20;;;16.00;98.40;;;;;;4832991;29;20034;-72
2021/05/10 06:19:48;;;;;;;5.93;2.40;;;16.10;98.90;;;;;;4817234;29;20122;-74
2021/05/10 06:22:15;;;;;;;4.55;2.22;;;16.10;98.70;;;;;;4821102;29;20037;-73
2021/05/10 06:24:41;;;;;;;5.43;2.13;;;16.20;99.50;;;;;;4834064;29;20042;-75
2021/05/10 06:27:06;;;;;;;6.40;2.20;;;16.40;99.90;;;;;;4833621;29;20052;-74
2021/05/10 06:29:32;;;;;;;11.57;3.08;;;16.50;99.50;;;;;;4834341;29;20034;-73
2021/05/10 06:31:58;;;;;;;7.03;2.72;;;16.70;99.20;;;;;;4833594;29;20082;-74
2021/05/10 06:34:23;;;;;;;6.78;2.70;;;16.70;99.70;;;;;;4834263;29;20129;-73
2021/05/10 06:36:49;;;;;;;3.85;2.20;;;17.00;99.00;;;;;;4818539;29;20030;-73
2021/05/10 06:39:15;;;;;;;4.93;2.65;;;17.10;98.80;;;;;;4816334;29;20026;-73
2021/05/10 06:41:41;;;;;;;6.75;2.40;;;17.30;98.60;;;;;;4815641;29;20037;-73
2021/05/10 06:44:07;;;;;;;7.80;2.50;;;17.30;97.80;;;;;;4831751;29;20038;-73
2021/05/10 06:46:33;;;;;;;7.38;3.00;;;17.30;98.10;;;;;;4834087;29;20376;-73
2021/05/10 06:48:58;;;;;;;9.55;2.72;;;17.30;97.70;;;;;;4833362;29;20036;-73
2021/05/10 06:51:24;;;;;;;7.03;2.72;;;17.50;97.60;;;;;;4833768;29;20044;-73
2021/05/10 06:53:50;;;;;;;12.13;3.10;;;17.80;97.20;;;;;;4827626;29;20026;-73
2021/05/10 06:56:15;;;;;;;9.88;2.08;;;18.10;96.60;;;;;;4834080;29;20198;-73
2021/05/10 06:58:42;;;;;;;6.68;2.08;;;18.20;95.50;;;;;;4833217;29;20076;-73
2021/05/10 07:01:07;;;;;;;9.52;2.60;;;18.30;95.20;;;;;;4833669;29;20069;-73
2021/05/10 07:03:33;;;;;;;8.20;2.83;;;18.40;94.80;;;;;;4833808;29;20060;-73
2021/05/10 07:05:59;;;;;;;6.95;2.28;;;18.40;94.60;;;;;;4833677;29;20052;-73
2021/05/10 07:08:24;;;;;;;6.88;2.45;;;18.80;95.10;;;;;;4833567;29;20037;-73
2021/05/10 07:10:52;;;;;;;6.32;2.42;;;19.10;94.30;;;;;;4817349;29;20023;-73
2021/05/10 07:13:20;;;;;;;4.68;2.10;;;19.60;94.00;;;;;;4827606;29;20624;-73
2021/05/10 07:15:46;;;;;;;6.05;2.03;;;20.50;93.00;;;;;;4833643;29;20091;-73
2021/05/10 07:18:13;;;;;;;7.80;2.17;;;21.50;91.80;;;;;;4832825;29;20805;-72
2021/05/10 07:20:40;;;;;;;5.43;2.05;;;22.10;90.40;;;;;;4833033;29;20030;-73
2021/05/10 07:23:06;;;;;;;4.75;1.90;;;20.70;91.30;;;;;;4833446;29;20026;-72
2021/05/10 07:25:42;;;;;;;3.67;1.85;;;21.60;91.00;;;;;;4833607;29;20041;-73
2021/05/10 07:28:10;;;;;;;6.25;2.05;;;22.80;88.60;;;;;;4833124;29;20026;-73
2021/05/10 07:30:37;;;;;;;6.50;2.50;;;23.50;86.50;;;;;;4831892;29;20046;-72
2021/05/10 07:33:03;;;;;;;9.30;3.15;;;24.30;84.40;;;;;;4833457;29;20477;-73
2021/05/10 07:35:29;;;;;;;4.90;2.15;;;25.00;83.50;;;;;;4820064;29;20042;-74
2021/05/10 07:37:55;;;;;;;4.78;1.98;;;24.70;82.30;;;;;;4831587;29;20030;-73
2021/05/10 07:40:23;;;;;;;7.38;2.38;;;25.50;82.20;;;;;;4832428;29;20042;-74
2021/05/10 07:42:50;;;;;;;6.65;1.88;;;24.10;83.80;;;;;;4832203;29;20073;-73
2021/05/10 07:45:16;;;;;;;5.15;2.40;;;24.80;83.30;;;;;;4815194;29;20524;-73
2021/05/10 07:47:43;;;;;;;6.32;2.20;;;25.70;81.30;;;;;;4814538;29;20053;-73
2021/05/10 07:50:09;;;;;;;8.90;3.10;;;24.90;81.70;;;;;;4815747;29;20038;-74
2021/05/10 07:52:34;;;;;;;5.32;2.10;;;23.60;83.80;;;;;;4833529;29;20107;-73
2021/05/10 07:55:00;;;;;;;5.10;2.35;;;21.70;87.10;;;;;;4833077;29;20018;-73
2021/05/10 07:57:27;;;;;;;4.47;2.65;;;20.50;89.40;;;;;;4833597;29;20030;-73
2021/05/10 07:59:53;;;;;;;7.57;2.60;;;20.10;91.00;;;;;;4831383;29;20042;-72
2021/05/10 08:02:22;;;;;;;8.15;2.47;;;19.80;91.30;;;;;;4829362;29;20489;-73
2021/05/10 08:04:52;;;;;;;12.07;3.05;;;19.70;91.70;;;;;;4833599;29;20038;-73
2021/05/10 08:07:18;;;;;;;4.75;2.40;;;19.80;92.30;;;;;;4833533;29;20598;-74
2021/05/10 08:09:44;;;;;;;6.35;2.55;;;21.20;89.70;;;;;;4833748;29;20037;-74
2021/05/10 08:12:11;;;;;;;7.53;2.15;;;22.10;88.20;;;;;;4832639;29;20120;-73
2021/05/10 08:14:37;;;;;;;5.68;1.85;;;23.20;87.00;;;;;;4836156;29;20419;-73
2021/05/10 08:17:03;;;;;;;3.70;1.98;;;23.40;84.10;;;;;;4834172;29;20030;-73
2021/05/10 08:19:30;;;;;;;8.75;3.00;;;23.00;84.40;;;;;;4818775;29;20038;-75
2021/05/10 08:22:00;;;;;;;11.23;2.70;;;22.80;86.20;;;;;;4823221;29;20118;-73
2021/05/10 08:24:26;;;;;;;9.43;2.85;;;22.50;87.20;;;;;;4837075;29;20382;-73
2021/05/10 08:26:52;;;;;;;4.07;1.98;;;21.80;87.70;;;;;;4837036;29;20033;-73
2021/05/10 08:29:19;;;;;;;5.28;2.20;;;21.60;87.70;;;;;;4837114;29;20045;-74
2021/05/10 08:31:45;;;;;;;7.63;2.15;;;20.80;90.20;;;;;;4836933;29;20053;-73
2021/05/10 08:34:12;;;;;;;8.05;2.47;;;21.30;89.90;;;;;;4831285;29;20734;-73
2021/05/10 08:36:38;;;;;;;5.95;2.25;;;21.30;90.10;;;;;;4830161;29;20033;-75
2021/05/10 08:39:08;;;;;;;5.57;2.45;;;20.80;90.90;;;;;;4822261;29;20027;-73
2021/05/10 08:41:35;;;;;;;6.00;2.13;;;21.10;90.70;;;;;;4832453;29;20030;-73
2021/05/10 08:44:08;;;;;;;8.23;2.17;;;21.10;90.60;;;;;;4836686;29;20030;-73
2021/05/10 08:46:36;;;;;;;5.63;2.13;;;21.20;90.20;;;;;;4837018;29;20625;-73
2021/05/10 08:49:02;;;;;;;8.95;2.22;;;21.20;90.30;;;;;;4836694;29;20389;-73
2021/05/10 08:51:32;;;;;;;7.15;2.20;;;21.40;90.80;;;;;;4829953;29;20038;-73
2021/05/10 08:53:58;;;;;;;7.85;2.50;;;21.00;90.20;;;;;;4818122;29;20056;-74
2021/05/10 08:56:25;;;;;;;8.57;2.17;;;21.30;90.20;;;;;;4818290;29;20584;-73
2021/05/10 08:58:50;;;;;;;7.07;2.42;;;21.30;90.00;;;;;;4817995;29;20031;-73
2021/05/10 09:01:20;;;;;;;10.02;2.78;;;21.40;89.80;;;;;;4818273;29;20393;-73
2021/05/10 09:03:48;;;;;;;9.98;3.15;;;21.50;90.00;;;;;;4835731;29;20066;-73
2021/05/10 09:06:18;;;;;;;9.95;2.38;;;20.90;90.30;;;;;;4835949;29;20041;-73
2021/05/10 09:08:46;;;;;;;7.82;2.65;;;20.80;90.80;;;;;;4828480;29;20034;-73
2021/05/10 09:11:14;;;;;;;6.78;2.13;;;20.80;90.80;;;;;;4818111;29;20038;-73
2021/05/10 09:13:40;;;;;;;7.05;2.60;;;21.10;90.60;;;;;;4822507;29;20659;-74
2021/05/10 09:16:06;;;;;;;12.90;2.70;;;21.50;90.00;;;;;;4836252;29;20030;-73
2021/05/10 09:18:33;;;;;;;6.10;2.15;;;21.60;90.60;;;;;;4836373;29;20030;-73
2021/05/10 09:21:18;;;;;;;8.73;3.00;;;21.80;89.00;;;;;;4836015;29;20163;-73
2021/05/10 09:23:45;;;;;;;6.82;2.40;;;22.00;90.50;;;;;;4835716;29;20030;-73
2021/05/10 09:26:13;;;;;;;6.20;2.33;;;22.30;89.40;;;;;;4824431;29;20493;-74
2021/05/10 09:28:41;;;;;;;6.05;2.33;;;22.50;89.30;;;;;;4817942;29;20087;-75
2021/05/10 09:31:09;;;;;;;8.25;2.22;;;22.80;88.70;;;;;;4817604;29;20058;-73
2021/05/10 09:33:45;;;;;;;6.05;2.47;;;22.90;89.20;;;;;;4817457;29;20077;-73
2021/05/10 09:36:11;;;;;;;6.88;2.72;;;23.10;87.70;;;;;;4833049;29;20032;-73
2021/05/10 09:38:39;;;;;;;4.72;2.30;;;22.90;88.30;;;;;;4835565;29;20598;-73
2021/05/10 09:41:07;;;;;;;11.90;3.03;;;22.80;88.10;;;;;;4836045;29;20045;-73
2021/05/10 09:43:35;;;;;;;8.45;2.10;;;22.60;88.60;;;;;;4821353;29;20490;-73
2021/05/10 09:46:10;;;;;;;5.22;2.25;;;22.50;90.00;;;;;;4830303;29;20034;-73
2021/05/10 09:48:38;;;;;;;18.45;3.53;;;22.70;88.30;;;;;;4835128;29;20364;-74
2021/05/10 09:51:05;;;;;;;5.03;2.30;;;22.90;88.90;;;;;;4834855;29;20022;-74
2021/05/10 09:53:37;;;;;;;6.10;2.17;;;22.80;88.70;;;;;;4835723;29;20030;-73
2021/05/10 09:56:07;;;;;;;10.88;2.22;;;23.00;88.40;;;;;;4824264;29;20035;-73
2021/05/10 09:58:46;;;;;;;6.45;2.60;;;23.20;90.80;;;;;;4817175;29;20669;-74
2021/05/10 10:01:13;;;;;;;4.40;2.25;;;23.10;87.50;;;;;;4817302;29;20062;-73
2021/05/10 10:03:40;;;;;;;4.63;2.22;;;23.20;88.50;;;;;;4823189;29;20082;-73
2021/05/10 10:06:14;;;;;;;3.80;1.90;;;22.60;87.40;;;;;;4834809;29;20037;-73
2021/05/10 10:08:40;;;;;;;;;;;22.60;86.70;;;;;;4836275;29;20026;-73
2021/05/10 10:11:09;;;;;;;5.93;1.85;;;22.80;88.10;;;;;;4835153;29;20285;-73
2021/05/10 10:13:35;;;;;;;5.07;2.10;;;23.30;86.80;;;;;;4835316;29;20086;-74
2021/05/10 10:16:02;;;;;;;6.88;2.05;;;23.40;86.70;;;;;;4832095;29;20074;-73
2021/05/10 10:18:28;;;;;;;3.63;1.83;;;23.80;87.60;;;;;;4817248;29;20092;-75
2021/05/10 10:20:59;;;;;;;7.47;2.50;;;23.90;87.30;;;;;;4816720;29;20613;-73
2021/05/10 10:23:27;;;;;;;6.50;2.13;;;23.60;86.20;;;;;;4816577;29;20034;-73
2021/05/10 10:25:58;;;;;;;7.03;1.80;;;23.10;85.30;;;;;;4819129;29;20037;-73
2021/05/10 10:28:26;;;;;;;5.32;1.85;;;23.00;86.10;;;;;;4835295;29;20026;-73
2021/05/10 10:30:59;;;;;;;5.53;1.70;;;23.30;87.40;;;;;;4834458;29;20091;-73
2021/05/10 10:33:51;;;;;;;7.70;2.10;;;23.50;86.10;;;;;;4829624;29;20054;-74
2021/05/10 10:36:25;;;;;;;11.90;2.10;;;24.00;88.00;;;;;;4822493;29;20068;-73
2021/05/10 10:39:09;;;;;;;;;;;24.00;86.20;;;;;;4834583;29;20477;-73
2021/05/10 10:41:53;;;;;;;5.83;2.03;;;24.00;86.90;;;;;;4830117;29;19920;-73
2021/05/10 10:44:36;;;;;;;4.00;1.67;;;24.20;85.00;;;;;;4834001;29;20034;-73
2021/05/10 10:47:03;;;;;;;3.58;1.85;;;24.40;87.20;;;;;;4830000;29;20124;-74
2021/05/10 10:49:38;;;;;;;3.35;1.88;;;24.50;87.70;;;;;;4834132;29;20041;-74
2021/05/10 10:52:18;;;;;;;2.83;1.52;;;24.70;87.60;;;;;;4816496;29;20054;-73
2021/05/10 10:54:45;;;;;;;5.95;1.88;;;25.00;87.30;;;;;;4816691;29;20118;-75
2021/05/10 10:57:29;;;;;;;4.85;1.92;;;25.00;87.10;;;;;;4816902;29;20177;-73
2021/05/10 10:59:55;;;;;;;3.30;1.60;;;25.10;86.60;;;;;;4831881;29;20033;-75
2021/05/10 11:02:24;;;;;;;3.35;1.55;;;25.30;85.50;;;;;;4835039;29;20037;-75
2021/05/10 11:05:28;;;;;;;8.75;1.75;;;25.40;85.80;;;;;;4833641;29;20034;-75
2021/05/10 11:08:08;;;;;;;4.03;1.75;;;25.60;85.10;;;;;;4832638;29;20077;-75
2021/05/10 11:10:55;;;;;;;3.55;1.70;;;25.40;84.20;;;;;;4819644;29;20037;-75
2021/05/10 11:13:27;;;;;;;5.90;1.52;;;25.30;83.70;;;;;;4833726;29;20156;-74
2021/05/10 11:15:56;;;;;;;2.88;1.33;;;25.40;81.30;;;;;;4832380;29;20364;-74
2021/05/10 11:18:51;;;;;;;5.82;1.63;;;25.50;82.00;;;;;;4833503;29;20598;-74
2021/05/10 11:21:23;;;;;;;3.88;1.60;;;25.60;83.30;;;;;;4815689;29;20175;-75
2021/05/10 11:23:56;;;;;;;4.43;1.80;;;26.10;81.10;;;;;;4816268;29;20358;-75
2021/05/10 11:26:40;;;;;;;3.38;1.70;;;26.00;81.20;;;;;;4833848;29;20038;-75
2021/05/10 11:29:08;;;;;;;8.18;1.63;;;25.40;77.70;;;;;;4832945;29;20046;-75
2021/05/10 11:31:41;;;;;;;4.78;1.92;;;25.40;81.30;;;;;;4833462;29;20050;-75
2021/05/10 11:34:11;;;;;;;3.78;1.35;;;25.40;79.90;;;;;;4833267;29;20603;-75
2021/05/10 11:36:46;;;;;;;5.57;1.63;;;25.30;80.40;;;;;;4833391;29;20078;-75
2021/05/10 11:39:15;;;;;;;4.07;1.70;;;25.40;79.90;;;;;;4832474;29;20090;-74
2021/05/10 11:41:45;;;;;;;4.57;1.75;;;25.40;80.90;;;;;;4825558;29;20062;-74
2021/05/10 11:44:22;;;;;;;3.08;1.30;;;25.30;79.20;;;;;;4829955;29;20042;-75
2021/05/10 11:46:58;;;;;;;5.03;1.30;;;25.40;80.00;;;;;;4833768;29;20370;-75
2021/05/10 11:49:39;;;;;;;4.07;2.10;;;25.40;79.10;;;;;;4833844;29;20104;-75
2021/05/10 11:52:10;;;;;;;4.50;1.70;;;25.20;80.50;;;;;;4815616;29;20065;-74
2021/05/10 11:54:39;;;;;;;3.53;1.58;;;25.40;83.70;;;;;;4822508;29;20105;-75
2021/05/10 11:57:05;;;;;;;7.10;1.70;;;25.30;82.90;;;;;;4815526;29;20034;-74
2021/05/10 11:59:46;;;;;;;3.75;1.75;;;25.20;81.60;;;;;;4815332;29;20041;-74
2021/05/10 12:02:15;;;;;;;3.50;1.58;;;24.90;81.00;;;;;;4815892;29;20118;-75
2021/05/10 12:04:43;;;;;;;7.25;1.98;;;25.00;82.20;;;;;;4825600;29;20099;-75
2021/05/10 12:07:09;;;;;;;8.52;1.75;;;25.00;81.50;;;;;;4833582;29;20030;-75
2021/05/10 12:09:48;;;;;;;3.95;1.40;;;25.10;82.10;;;;;;4833691;29;20057;-74
2021/05/10 12:12:13;;;;;;;7.32;1.67;;;25.30;81.90;;;;;;4833667;29;20036;-75
2021/05/10 12:14:46;;;;;;;3.72;1.20;;;25.40;81.60;;;;;;4833268;29;20050;-75
2021/05/10 12:17:19;;;;;;;6.45;2.00;;;25.60;81.80;;;;;;4833145;29;20030;-75
2021/05/10 12:20:03;;;;;;;5.47;1.38;;;25.60;81.70;;;;;;4833259;29;20030;-74
2021/05/10 12:22:32;;;;;;;4.97;1.92;;;25.30;80.40;;;;;;4833712;29;20034;-75
2021/05/10 12:25:05;;;;;;;4.60;1.80;;;25.60;81.10;;;;;;4832884;29;20040;-75
2021/05/10 12:27:41;;;;;;;4.63;1.90;;;25.50;81.80;;;;;;4833747;29;20490;-75
2021/05/10 12:30:32;;;;;;;7.63;2.28;;;25.70;82.20;;;;;;4831511;29;20505;-75
2021/05/10 12:33:03;;;;;;;3.97;1.17;;;25.90;79.60;;;;;;4821766;29;20050;-75
2021/05/10 12:35:38;;;;;;;6.38;1.77;;;26.50;79.30;;;;;;4821942;29;20037;-74
2021/05/10 12:38:05;;;;;;;5.47;2.05;;;26.60;79.70;;;;;;4833246;29;20030;-75
2021/05/10 12:40:37;;;;;;;4.35;1.27;;;26.70;81.50;;;;;;4833458;29;20038;-75
2021/05/10 12:43:16;;;;;;;8.88;1.40;;;27.20;78.70;;;;;;4833442;29;20041;-75
2021/05/10 12:46:03;;;;;;;8.73;2.42;;;26.80;77.40;;;;;;4832335;29;20041;-75
2021/05/10 12:48:39;;;;;;;7.65;1.65;;;26.20;77.50;;;;;;4832630;29;20030;-75
2021/05/10 12:51:12;;;;;;;3.10;1.58;;;25.90;79.00;;;;;;4814829;29;20394;-75
2021/05/10 12:53:47;;;;;;;4.35;1.30;;;25.80;79.80;;;;;;4814852;29;20058;-75
2021/05/10 12:56:14;;;;;;;8.07;1.52;;;26.00;79.70;;;;;;4814805;29;20078;-75
2021/05/10 12:58:44;;;;;;;5.45;1.63;;;26.40;79.00;;;;;;4814854;29;20035;-75
2021/05/10 13:01:28;;;;;;;4.82;1.60;;;27.00;80.80;;;;;;4818013;29;20515;-75
2021/05/10 13:04:09;;;;;;;7.00;2.05;;;27.10;78.00;;;;;;4817700;29;20026;-75